Wetterdaten: Woche 27.02.12 - 04.03.12 (KW9)
Datum Zeit Temp. Innen Temp. Aussen UV X Diff Temp. Feuchte Inne Feuchte Auss Sonnenschein Luftdruck Regen ab 0,1 Wind Sonnenschein T Regendauer Windben
27.02.2012 00:00 14,4 C 4,3 C 0,0 UV-I 0,0 C 54 % 92 % 0 % 1028,2 hPa 0,0 l/m 0,0 km/h (0 Bft) 0,00 h 0,07 h 0,0 km/h (0 Bft)
27.02.2012 01:00 14,3 C 3,5 C 0,0 UV-I 0,0 C 54 % 93 % 0 % 1028,3 hPa 0,0 l/m 0,0 km/h (0 Bft) 0,00 h 0,07 h 0,0 km/h (0 Bft)
27.02.2012 02:00 14,2 C 4,1 C 0,0 UV-I 0,0 C 54 % 95 % 0 % 1028,3 hPa 0,0 l/m 0,6 km/h (0 Bft) 0,00 h 0,07 h 1,7 km/h (1 Bft)
27.02.2012 03:00 14,3 C 4,5 C 0,0 UV-I 0,0 C 55 % 95 % 0 % 1027,7 hPa 0,0 l/m 0,0 km/h (0 Bft) 0,00 h 0,03 h 0,1 km/h (0 Bft)
27.02.2012 04:00 14,3 C 4,6 C 0,0 UV-I 0,0 C 54 % 95 % 0 % 1027,5 hPa 0,0 l/m 0,0 km/h (0 Bft) 0,00 h 0,00 h 0,1 km/h (0 Bft)
27.02.2012 05:00 14,3 C 4,4 C 0,0 UV-I 0,0 C 54 % 95 % 0 % 1027,0 hPa 0,0 l/m 0,0 km/h (0 Bft) 0,00 h 0,00 h 0,1 km/h (0 Bft)
27.02.2012 06:00 14,3 C 4,4 C 0,0 UV-I 0,0 C 54 % 95 % 0 % 1026,7 hPa 0,0 l/m 0,1 km/h (0 Bft) 0,00 h 0,13 h 0,2 km/h (0 Bft)
27.02.2012 07:00 14,2 C 3,9 C 0,0 UV-I 0,0 C 54 % 95 % 0 % 1026,7 hPa 0,0 l/m 0,1 km/h (0 Bft) 0,00 h 0,07 h 0,1 km/h (0 Bft)
27.02.2012 08:00 14,2 C 4,0 C 0,0 UV-I 0,0 C 54 % 96 % 1 % 1027,2 hPa 0,0 l/m 0,3 km/h (0 Bft) 0,00 h 0,03 h 1,0 km/h (0 Bft)
27.02.2012 09:00 14,2 C 5,0 C 0,0 UV-I 0,8 C 54 % 96 % 24 % 1026,8 hPa 0,0 l/m 2,3 km/h (1 Bft) 0,00 h 0,00 h 4,9 km/h (1 Bft)
27.02.2012 10:00 14,4 C 6,4 C 0,2 UV-I 1,8 C 54 % 95 % 50 % 1026,5 hPa 0,0 l/m 3,2 km/h (1 Bft) 0,00 h 0,00 h 4,9 km/h (1 Bft)
27.02.2012 11:00 14,6 C 7,8 C 0,5 UV-I 2,6 C 53 % 91 % 75 % 1026,6 hPa 0,0 l/m 5,7 km/h (1 Bft) 0,10 h 0,00 h 8,9 km/h (2 Bft)
27.02.2012 12:00 15,0 C 9,3 C 1,7 UV-I 4,6 C 53 % 86 % 97 % 1026,0 hPa 0,0 l/m 7,6 km/h (2 Bft) 0,90 h 0,00 h 11,2 km/h (2 Bft)
27.02.2012 13:00 16,4 C 10,5 C 1,5 UV-I 4,5 C 50 % 77 % 95 % 1026,7 hPa 0,0 l/m 8,9 km/h (2 Bft) 0,87 h 0,00 h 11,5 km/h (2 Bft)
27.02.2012 14:00 16,5 C 10,4 C 0,3 UV-I 1,5 C 48 % 76 % 44 % 1025,0 hPa 0,0 l/m 6,7 km/h (2 Bft) 0,00 h 0,00 h 8,8 km/h (2 Bft)
27.02.2012 15:00 15,8 C 10,3 C 0,0 UV-I 0,7 C 49 % 75 % 20 % 1024,0 hPa 0,0 l/m 7,9 km/h (2 Bft) 0,00 h 0,00 h 10,8 km/h (2 Bft)
27.02.2012 16:00 15,4 C 10,1 C 0,0 UV-I 0,2 C 50 % 76 % 6 % 1023,4 hPa 0,0 l/m 8,0 km/h (2 Bft) 0,00 h 0,00 h 12,4 km/h (3 Bft)
27.02.2012 17:00 15,1 C 9,5 C 0,0 UV-I 0,0 C 51 % 79 % 0 % 1023,1 hPa 0,0 l/m 6,0 km/h (2 Bft) 0,00 h 0,00 h 8,1 km/h (2 Bft)
27.02.2012 18:00 14,8 C 9,1 C 0,0 UV-I 0,0 C 52 % 82 % 0 % 1023,4 hPa 0,0 l/m 5,1 km/h (1 Bft) 0,00 h 0,00 h 7,4 km/h (2 Bft)
27.02.2012 19:00 14,9 C 8,6 C 0,0 UV-I 0,0 C 53 % 85 % 0 % 1023,8 hPa 0,0 l/m 5,1 km/h (1 Bft) 0,00 h 0,00 h 7,2 km/h (2 Bft)
27.02.2012 20:00 14,8 C 8,0 C 0,0 UV-I 0,0 C 55 % 89 % 0 % 1023,8 hPa 0,0 l/m 3,6 km/h (1 Bft) 0,00 h 0,07 h 4,8 km/h (1 Bft)
27.02.2012 21:00 14,8 C 7,9 C 0,0 UV-I 0,0 C 55 % 91 % 0 % 1023,4 hPa 0,0 l/m 3,0 km/h (1 Bft) 0,00 h 0,03 h 4,6 km/h (1 Bft)
27.02.2012 22:00 14,7 C 7,8 C 0,0 UV-I 0,0 C 56 % 92 % 0 % 1023,7 hPa 0,0 l/m 3,0 km/h (1 Bft) 0,00 h 0,03 h 6,1 km/h (2 Bft)
27.02.2012 23:00 14,6 C 7,7 C 0,0 UV-I 0,0 C 57 % 94 % 0 % 1023,7 hPa 0,0 l/m 3,1 km/h (1 Bft) 0,00 h 0,03 h 5,6 km/h (1 Bft)
28.02.2012 00:00 14,6 C 7,7 C 0,0 UV-I 0,0 C 57 % 94 % 0 % 1023,6 hPa 0,0 l/m 4,4 km/h (1 Bft) 0,00 h 0,13 h 7,4 km/h (2 Bft)
28.02.2012 01:00 14,7 C 7,6 C 0,0 UV-I 0,0 C 58 % 95 % 0 % 1023,6 hPa 0,0 l/m 2,0 km/h (1 Bft) 0,00 h 0,03 h 2,8 km/h (1 Bft)
28.02.2012 02:00 14,7 C 7,7 C 0,0 UV-I 0,0 C 58 % 95 % 0 % 1023,6 hPa 0,0 l/m 2,2 km/h (1 Bft) 0,00 h 0,07 h 2,9 km/h (1 Bft)
28.02.2012 03:00 14,7 C 7,6 C 0,0 UV-I 0,0 C 58 % 96 % 0 % 1023,4 hPa 0,0 l/m 2,1 km/h (1 Bft) 0,00 h 0,10 h 2,9 km/h (1 Bft)
28.02.2012 04:00 14,7 C 7,7 C 0,0 UV-I 0,0 C 58 % 96 % 0 % 1022,7 hPa 0,0 l/m 2,5 km/h (1 Bft) 0,00 h 0,03 h 4,2 km/h (1 Bft)
28.02.2012 05:00 14,7 C 7,8 C 0,0 UV-I 0,0 C 59 % 96 % 0 % 1022,8 hPa 0,0 l/m 2,9 km/h (1 Bft) 0,00 h 0,03 h 4,6 km/h (1 Bft)
28.02.2012 06:00 14,7 C 7,9 C 0,0 UV-I 0,0 C 59 % 97 % 0 % 1022,8 hPa 0,0 l/m 4,1 km/h (1 Bft) 0,00 h 0,00 h 7,5 km/h (2 Bft)
28.02.2012 07:00 14,7 C 7,9 C 0,0 UV-I 0,0 C 60 % 97 % 0 % 1023,2 hPa 0,0 l/m 4,0 km/h (1 Bft) 0,00 h 0,20 h 6,0 km/h (2 Bft)
28.02.2012 08:00 14,7 C 8,0 C 0,0 UV-I 0,0 C 60 % 97 % 0 % 1023,4 hPa 0,0 l/m 3,0 km/h (1 Bft) 0,00 h 0,20 h 4,6 km/h (1 Bft)
28.02.2012 09:00 14,8 C 8,1 C 0,0 UV-I 0,0 C 60 % 97 % 0 % 1023,7 hPa 0,1 l/m 4,7 km/h (1 Bft) 0,00 h 0,07 h 6,6 km/h (2 Bft)
28.02.2012 10:00 14,8 C 8,4 C 0,0 UV-I 0,2 C 61 % 98 % 7 % 1023,8 hPa 0,0 l/m 6,2 km/h (2 Bft) 0,00 h 0,03 h 9,1 km/h (2 Bft)
28.02.2012 11:00 14,8 C 8,8 C 0,0 UV-I 0,4 C 61 % 97 % 12 % 1024,2 hPa 0,0 l/m 4,9 km/h (1 Bft) 0,00 h 0,10 h 9,2 km/h (2 Bft)
28.02.2012 12:00 14,9 C 9,2 C 0,0 UV-I 0,4 C 61 % 97 % 12 % 1024,5 hPa 0,0 l/m 5,5 km/h (1 Bft) 0,00 h 0,07 h 8,5 km/h (2 Bft)
28.02.2012 13:00 15,0 C 9,6 C 0,0 UV-I 0,4 C 61 % 96 % 11 % 1024,4 hPa 0,0 l/m 6,2 km/h (2 Bft) 0,00 h 0,03 h 10,5 km/h (2 Bft)
28.02.2012 14:00 15,0 C 9,8 C 0,0 UV-I 0,4 C 62 % 96 % 12 % 1024,2 hPa 0,0 l/m 5,6 km/h (1 Bft) 0,00 h 0,00 h 8,3 km/h (2 Bft)
28.02.2012 15:00 15,1 C 10,2 C 0,0 UV-I 0,3 C 62 % 96 % 8 % 1023,9 hPa 0,0 l/m 5,3 km/h (1 Bft) 0,00 h 0,07 h 7,9 km/h (2 Bft)
28.02.2012 16:00 15,1 C 10,3 C 0,0 UV-I 0,0 C 62 % 95 % 1 % 1023,6 hPa 0,0 l/m 6,1 km/h (2 Bft) 0,00 h 0,07 h 7,4 km/h (2 Bft)
28.02.2012 17:00 15,2 C 10,2 C 0,0 UV-I 0,0 C 62 % 94 % 0 % 1023,7 hPa 0,0 l/m 5,7 km/h (1 Bft) 0,00 h 0,13 h 8,0 km/h (2 Bft)
28.02.2012 18:00 15,2 C 10,0 C 0,0 UV-I 0,0 C 63 % 95 % 0 % 1024,3 hPa 0,0 l/m 5,3 km/h (1 Bft) 0,00 h 0,07 h 7,4 km/h (2 Bft)
28.02.2012 19:00 15,0 C 9,8 C 0,0 UV-I 0,0 C 63 % 95 % 0 % 1024,8 hPa 0,0 l/m 5,2 km/h (1 Bft) 0,00 h 0,10 h 8,4 km/h (2 Bft)
28.02.2012 20:00 15,0 C 9,6 C 0,0 UV-I 0,0 C 64 % 96 % 0 % 1024,9 hPa 0,0 l/m 4,7 km/h (1 Bft) 0,00 h 0,13 h 7,3 km/h (2 Bft)
28.02.2012 21:00 14,8 C 9,5 C 0,0 UV-I 0,0 C 65 % 97 % 0 % 1024,9 hPa 0,0 l/m 5,4 km/h (1 Bft) 0,00 h 0,13 h 7,3 km/h (2 Bft)
28.02.2012 22:00 14,9 C 9,5 C 0,0 UV-I 0,0 C 66 % 97 % 0 % 1025,4 hPa 0,0 l/m 4,4 km/h (1 Bft) 0,00 h 0,13 h 5,8 km/h (2 Bft)
28.02.2012 23:00 14,8 C 9,5 C 0,0 UV-I 0,0 C 66 % 98 % 0 % 1025,3 hPa 0,0 l/m 4,9 km/h (1 Bft) 0,00 h 0,13 h 6,9 km/h (2 Bft)
29.02.2012 00:00 14,8 C 9,5 C 0,0 UV-I 0,0 C 67 % 98 % 0 % 1025,3 hPa 0,0 l/m 3,5 km/h (1 Bft) 0,00 h 0,07 h 5,8 km/h (1 Bft)
29.02.2012 01:00 14,8 C 9,5 C 0,0 UV-I 0,0 C 67 % 98 % 0 % 1025,8 hPa 0,0 l/m 3,2 km/h (1 Bft) 0,00 h 0,07 h 4,4 km/h (1 Bft)
29.02.2012 02:00 14,8 C 9,4 C 0,0 UV-I 0,0 C 67 % 98 % 0 % 1025,8 hPa 0,0 l/m 3,4 km/h (1 Bft) 0,00 h 0,07 h 6,5 km/h (2 Bft)
29.02.2012 03:00 14,8 C 9,5 C 0,0 UV-I 0,0 C 67 % 98 % 0 % 1025,6 hPa 0,0 l/m 2,8 km/h (1 Bft) 0,00 h 0,13 h 4,9 km/h (1 Bft)
29.02.2012 04:00 14,8 C 9,5 C 0,0 UV-I 0,0 C 67 % 98 % 0 % 1025,5 hPa 0,0 l/m 2,4 km/h (1 Bft) 0,00 h 0,03 h 4,5 km/h (1 Bft)
29.02.2012 05:00 14,8 C 9,5 C 0,0 UV-I 0,0 C 68 % 98 % 0 % 1025,4 hPa 0,0 l/m 1,6 km/h (1 Bft) 0,00 h 0,03 h 2,6 km/h (1 Bft)
29.02.2012 06:00 14,8 C 9,5 C 0,0 UV-I 0,0 C 68 % 98 % 0 % 1025,6 hPa 0,0 l/m 1,2 km/h (1 Bft) 0,00 h 0,17 h 1,5 km/h (1 Bft)
29.02.2012 07:00 14,7 C 9,4 C 0,0 UV-I 0,0 C 68 % 98 % 0 % 1025,9 hPa 0,0 l/m 0,3 km/h (0 Bft) 0,00 h 0,07 h 0,3 km/h (0 Bft)
29.02.2012 08:00 14,6 C 9,3 C 0,0 UV-I 0,0 C 69 % 98 % 0 % 1026,3 hPa 0,0 l/m 0,1 km/h (0 Bft) 0,00 h 0,00 h 0,3 km/h (0 Bft)
29.02.2012 09:00 14,7 C 9,6 C 0,0 UV-I 0,4 C 69 % 99 % 13 % 1026,2 hPa 0,0 l/m 0,6 km/h (0 Bft) 0,00 h 0,03 h 1,5 km/h (1 Bft)
29.02.2012 10:00 15,0 C 10,0 C 0,0 UV-I 1,3 C 68 % 99 % 37 % 1026,3 hPa 0,0 l/m 1,4 km/h (1 Bft) 0,00 h 0,00 h 2,8 km/h (1 Bft)
29.02.2012 11:00 15,3 C 10,5 C 0,2 UV-I 2,2 C 68 % 99 % 63 % 1026,6 hPa 0,0 l/m 1,9 km/h (1 Bft) 0,00 h 0,00 h 3,3 km/h (1 Bft)
29.02.2012 12:00 15,6 C 11,3 C 0,3 UV-I 2,5 C 67 % 99 % 72 % 1026,7 hPa 0,0 l/m 2,0 km/h (1 Bft) 0,00 h 0,00 h 3,8 km/h (1 Bft)
29.02.2012 13:00 15,8 C 12,0 C 0,3 UV-I 2,1 C 66 % 97 % 60 % 1026,5 hPa 0,0 l/m 2,3 km/h (1 Bft) 0,00 h 0,00 h 3,6 km/h (1 Bft)
29.02.2012 14:00 16,0 C 12,3 C 0,1 UV-I 1,9 C 66 % 97 % 54 % 1026,4 hPa 0,0 l/m 1,6 km/h (1 Bft) 0,00 h 0,00 h 3,3 km/h (1 Bft)
29.02.2012 15:00 16,1 C 12,4 C 0,1 UV-I 1,6 C 66 % 96 % 46 % 1026,1 hPa 0,0 l/m 1,9 km/h (1 Bft) 0,00 h 0,00 h 2,5 km/h (1 Bft)
29.02.2012 16:00 16,2 C 12,3 C 0,0 UV-I 0,8 C 65 % 95 % 24 % 1025,9 hPa 0,0 l/m 1,1 km/h (1 Bft) 0,00 h 0,00 h 2,3 km/h (1 Bft)
29.02.2012 17:00 16,0 C 12,2 C 0,0 UV-I 0,1 C 65 % 94 % 2 % 1025,6 hPa 0,0 l/m 0,5 km/h (0 Bft) 0,00 h 0,00 h 1,0 km/h (0 Bft)
29.02.2012 18:00 15,9 C 11,8 C 0,0 UV-I 0,0 C 66 % 94 % 0 % 1025,7 hPa 0,0 l/m 0,1 km/h (0 Bft) 0,00 h 0,07 h 0,4 km/h (0 Bft)
29.02.2012 19:00 15,8 C 11,4 C 0,0 UV-I 0,0 C 66 % 94 % 0 % 1026,1 hPa 0,0 l/m 0,1 km/h (0 Bft) 0,00 h 0,07 h 0,0 km/h (0 Bft)
29.02.2012 20:00 15,6 C 11,1 C 0,0 UV-I 0,0 C 66 % 94 % 0 % 1025,9 hPa 0,0 l/m 0,0 km/h (0 Bft) 0,00 h 0,07 h 0,0 km/h (0 Bft)
29.02.2012 21:00 15,5 C 10,8 C 0,0 UV-I 0,0 C 67 % 95 % 0 % 1025,9 hPa 0,0 l/m 0,0 km/h (0 Bft) 0,00 h 0,00 h 0,0 km/h (0 Bft)
29.02.2012 22:00 15,5 C 10,8 C 0,0 UV-I 0,0 C 67 % 95 % 0 % 1026,0 hPa 0,0 l/m 0,1 km/h (0 Bft) 0,00 h 0,03 h 0,2 km/h (0 Bft)
29.02.2012 23:00 15,6 C 10,8 C 0,0 UV-I 0,0 C 66 % 95 % 0 % 1026,0 hPa 0,0 l/m 0,1 km/h (0 Bft) 0,00 h 0,03 h 0,1 km/h (0 Bft)
01.03.2012 00:00 15,6 C 10,6 C 0,0 UV-I 0,0 C 66 % 95 % 0 % 1026,1 hPa 0,0 l/m 0,0 km/h (0 Bft) 0,00 h 0,03 h 0,0 km/h (0 Bft)
01.03.2012 01:00 15,5 C 10,4 C 0,0 UV-I 0,0 C 66 % 95 % 0 % 1026,0 hPa 0,0 l/m 0,0 km/h (0 Bft) 0,00 h 0,03 h 0,0 km/h (0 Bft)
01.03.2012 02:00 15,5 C 10,3 C 0,0 UV-I 0,0 C 66 % 95 % 0 % 1025,6 hPa 0,0 l/m 0,1 km/h (0 Bft) 0,00 h 0,00 h 0,2 km/h (0 Bft)
01.03.2012 03:00 15,4 C 10,1 C 0,0 UV-I 0,0 C 66 % 96 % 0 % 1025,3 hPa 0,0 l/m 0,2 km/h (0 Bft) 0,00 h 0,07 h 0,1 km/h (0 Bft)
01.03.2012 04:00 15,4 C 10,0 C 0,0 UV-I 0,0 C 66 % 96 % 0 % 1025,4 hPa 0,0 l/m 0,1 km/h (0 Bft) 0,00 h 0,03 h 0,6 km/h (0 Bft)
01.03.2012 05:00 15,3 C 9,7 C 0,0 UV-I 0,0 C 66 % 96 % 0 % 1025,4 hPa 0,0 l/m 1,1 km/h (0 Bft) 0,00 h 0,10 h 2,7 km/h (1 Bft)
01.03.2012 06:00 15,4 C 9,4 C 0,0 UV-I 0,0 C 66 % 96 % 0 % 1025,2 hPa 0,0 l/m 1,3 km/h (1 Bft) 0,00 h 0,20 h 1,7 km/h (1 Bft)
01.03.2012 07:00 15,5 C 9,2 C 0,0 UV-I 0,0 C 66 % 97 % 0 % 1025,5 hPa 0,0 l/m 1,9 km/h (1 Bft) 0,00 h 0,23 h 2,8 km/h (1 Bft)
01.03.2012 08:00 15,5 C 9,1 C 0,0 UV-I 0,0 C 66 % 98 % 0 % 1025,9 hPa 0,1 l/m 1,4 km/h (1 Bft) 0,00 h 0,13 h 1,5 km/h (1 Bft)
01.03.2012 09:00 15,6 C 9,2 C 0,0 UV-I 0,1 C 66 % 98 % 3 % 1026,3 hPa 0,0 l/m 3,9 km/h (1 Bft) 0,00 h 0,10 h 4,9 km/h (1 Bft)
01.03.2012 10:00 15,7 C 9,4 C 0,0 UV-I 0,6 C 66 % 98 % 17 % 1026,6 hPa 0,0 l/m 3,4 km/h (1 Bft) 0,00 h 0,03 h 5,4 km/h (1 Bft)
01.03.2012 11:00 15,8 C 9,6 C 0,0 UV-I 0,9 C 65 % 98 % 24 % 1026,7 hPa 0,0 l/m 5,3 km/h (1 Bft) 0,00 h 0,00 h 6,3 km/h (2 Bft)
01.03.2012 12:00 16,0 C 10,1 C 0,0 UV-I 1,2 C 65 % 98 % 34 % 1026,9 hPa 0,0 l/m 1,4 km/h (1 Bft) 0,00 h 0,03 h 1,4 km/h (1 Bft)
01.03.2012 13:00 16,0 C 10,7 C 0,0 UV-I 1,3 C 65 % 98 % 36 % 1026,7 hPa 0,0 l/m 0,6 km/h (0 Bft) 0,00 h 0,00 h 1,2 km/h (1 Bft)
01.03.2012 14:00 16,1 C 10,9 C 0,0 UV-I 1,0 C 65 % 97 % 30 % 1026,3 hPa 0,0 l/m 2,1 km/h (1 Bft) 0,00 h 0,03 h 3,0 km/h (1 Bft)
01.03.2012 15:00 16,2 C 11,0 C 0,0 UV-I 0,7 C 64 % 96 % 20 % 1026,3 hPa 0,0 l/m 2,1 km/h (1 Bft) 0,00 h 0,00 h 3,7 km/h (1 Bft)
01.03.2012 16:00 16,2 C 10,8 C 0,0 UV-I 0,3 C 64 % 95 % 7 % 1026,6 hPa 0,0 l/m 7,2 km/h (2 Bft) 0,00 h 0,03 h 10,4 km/h (2 Bft)
01.03.2012 17:00 16,0 C 10,2 C 0,0 UV-I 0,0 C 64 % 95 % 0 % 1026,8 hPa 0,0 l/m 5,9 km/h (2 Bft) 0,00 h 0,03 h 7,3 km/h (2 Bft)
01.03.2012 18:00 15,9 C 9,7 C 0,0 UV-I 0,0 C 64 % 96 % 0 % 1027,3 hPa 0,0 l/m 4,8 km/h (1 Bft) 0,00 h 0,00 h 6,0 km/h (2 Bft)
01.03.2012 19:00 15,9 C 9,5 C 0,0 UV-I 0,0 C 64 % 96 % 0 % 1027,9 hPa 0,0 l/m 3,2 km/h (1 Bft) 0,00 h 0,03 h 4,7 km/h (1 Bft)
01.03.2012 20:00 15,9 C 9,2 C 0,0 UV-I 0,0 C 64 % 97 % 0 % 1028,1 hPa 0,0 l/m 3,7 km/h (1 Bft) 0,00 h 0,10 h 5,6 km/h (1 Bft)
01.03.2012 21:00 15,9 C 8,9 C 0,0 UV-I 0,0 C 65 % 98 % 0 % 1028,3 hPa 0,0 l/m 6,9 km/h (2 Bft) 0,00 h 0,20 h 8,6 km/h (2 Bft)
01.03.2012 22:00 15,8 C 8,4 C 0,0 UV-I 0,0 C 64 % 98 % 0 % 1028,8 hPa 0,0 l/m 7,0 km/h (2 Bft) 0,00 h 0,47 h 7,8 km/h (2 Bft)
01.03.2012 23:00 15,8 C 8,1 C 0,0 UV-I 0,0 C 64 % 98 % 0 % 1028,9 hPa 0,0 l/m 4,1 km/h (1 Bft) 0,00 h 0,20 h 5,4 km/h (1 Bft)
02.03.2012 00:00 15,8 C 8,0 C 0,0 UV-I 0,0 C 64 % 98 % 0 % 1028,8 hPa 0,0 l/m 5,2 km/h (1 Bft) 0,00 h 0,23 h 7,6 km/h (2 Bft)
02.03.2012 01:00 15,7 C 7,9 C 0,0 UV-I 0,0 C 64 % 99 % 0 % 1028,9 hPa 0,1 l/m 5,1 km/h (1 Bft) 0,00 h 0,30 h 6,4 km/h (2 Bft)
02.03.2012 02:00 15,6 C 7,8 C 0,0 UV-I 0,0 C 64 % 99 % 0 % 1029,0 hPa 0,0 l/m 5,9 km/h (2 Bft) 0,00 h 0,10 h 6,7 km/h (2 Bft)
02.03.2012 03:00 15,7 C 7,6 C 0,0 UV-I 0,0 C 64 % 99 % 0 % 1028,7 hPa 0,0 l/m 5,3 km/h (1 Bft) 0,00 h 0,27 h 7,5 km/h (2 Bft)
02.03.2012 04:00 15,6 C 7,6 C 0,0 UV-I 0,0 C 64 % 99 % 0 % 1028,5 hPa 0,0 l/m 1,7 km/h (1 Bft) 0,00 h 0,07 h 2,3 km/h (1 Bft)
02.03.2012 05:00 15,6 C 7,7 C 0,0 UV-I 0,0 C 64 % 99 % 0 % 1028,6 hPa 0,0 l/m 0,5 km/h (0 Bft) 0,00 h 0,07 h 0,7 km/h (0 Bft)
02.03.2012 06:00 15,6 C 7,7 C 0,0 UV-I 0,0 C 63 % 99 % 0 % 1027,8 hPa 0,0 l/m 1,7 km/h (1 Bft) 0,00 h 0,17 h 2,4 km/h (1 Bft)
02.03.2012 07:00 15,6 C 7,9 C 0,0 UV-I 0,0 C 63 % 99 % 0 % 1027,3 hPa 0,0 l/m 3,2 km/h (1 Bft) 0,00 h 0,00 h 4,2 km/h (1 Bft)
02.03.2012 08:00 15,6 C 8,2 C 0,0 UV-I 0,0 C 63 % 98 % 0 % 1027,5 hPa 0,0 l/m 3,5 km/h (1 Bft) 0,00 h 0,10 h 4,9 km/h (1 Bft)
02.03.2012 09:00 15,7 C 8,4 C 0,0 UV-I 0,2 C 62 % 97 % 7 % 1027,7 hPa 0,0 l/m 2,4 km/h (1 Bft) 0,00 h 0,00 h 3,9 km/h (1 Bft)
02.03.2012 10:00 15,8 C 8,7 C 0,0 UV-I 0,7 C 62 % 96 % 19 % 1027,7 hPa 0,0 l/m 2,5 km/h (1 Bft) 0,00 h 0,00 h 4,2 km/h (1 Bft)
02.03.2012 11:00 15,9 C 9,0 C 0,0 UV-I 1,0 C 61 % 96 % 29 % 1027,9 hPa 0,0 l/m 2,6 km/h (1 Bft) 0,00 h 0,00 h 3,4 km/h (1 Bft)
02.03.2012 12:00 15,9 C 9,3 C 0,1 UV-I 1,2 C 61 % 94 % 34 % 1028,0 hPa 0,0 l/m 3,1 km/h (1 Bft) 0,00 h 0,00 h 4,9 km/h (1 Bft)
02.03.2012 13:00 16,1 C 9,6 C 0,1 UV-I 1,1 C 61 % 93 % 32 % 1027,7 hPa 0,0 l/m 3,6 km/h (1 Bft) 0,00 h 0,00 h 5,7 km/h (1 Bft)
02.03.2012 14:00 16,2 C 10,1 C 0,1 UV-I 1,3 C 61 % 92 % 36 % 1027,4 hPa 0,0 l/m 3,3 km/h (1 Bft) 0,00 h 0,00 h 4,8 km/h (1 Bft)
02.03.2012 15:00 16,3 C 10,3 C 0,0 UV-I 0,9 C 61 % 91 % 26 % 1026,7 hPa 0,0 l/m 2,0 km/h (1 Bft) 0,00 h 0,00 h 3,1 km/h (1 Bft)
02.03.2012 16:00 16,3 C 10,6 C 0,0 UV-I 0,5 C 61 % 90 % 14 % 1026,5 hPa 0,0 l/m 2,5 km/h (1 Bft) 0,00 h 0,00 h 4,5 km/h (1 Bft)
02.03.2012 17:00 16,2 C 10,6 C 0,0 UV-I 0,1 C 61 % 90 % 2 % 1025,9 hPa 0,0 l/m 2,1 km/h (1 Bft) 0,00 h 0,00 h 4,2 km/h (1 Bft)
02.03.2012 18:00 16,2 C 10,3 C 0,0 UV-I 0,0 C 61 % 91 % 0 % 1025,7 hPa 0,0 l/m 1,6 km/h (1 Bft) 0,00 h 0,00 h 2,0 km/h (1 Bft)
02.03.2012 19:00 16,1 C 10,3 C 0,0 UV-I 0,0 C 61 % 92 % 0 % 1025,5 hPa 0,0 l/m 0,2 km/h (0 Bft) 0,00 h 0,10 h 0,1 km/h (0 Bft)
02.03.2012 20:00 15,9 C 10,1 C 0,0 UV-I 0,0 C 61 % 92 % 0 % 1025,2 hPa 0,0 l/m 0,3 km/h (0 Bft) 0,00 h 0,00 h 0,6 km/h (0 Bft)
02.03.2012 21:00 15,9 C 10,0 C 0,0 UV-I 0,0 C 61 % 93 % 0 % 1024,7 hPa 0,0 l/m 1,3 km/h (1 Bft) 0,00 h 0,00 h 2,7 km/h (1 Bft)
02.03.2012 22:00 15,9 C 10,3 C 0,0 UV-I 0,0 C 62 % 92 % 0 % 1024,3 hPa 0,0 l/m 4,2 km/h (1 Bft) 0,00 h 0,00 h 6,9 km/h (2 Bft)
02.03.2012 23:00 15,9 C 9,9 C 0,0 UV-I 0,0 C 61 % 92 % 0 % 1024,3 hPa 0,0 l/m 7,3 km/h (2 Bft) 0,00 h 0,03 h 10,4 km/h (2 Bft)
03.03.2012 00:00 15,9 C 8,9 C 0,0 UV-I 0,0 C 61 % 92 % 0 % 1024,0 hPa 0,0 l/m 8,1 km/h (2 Bft) 0,00 h 0,10 h 11,9 km/h (2 Bft)
03.03.2012 01:00 15,6 C 8,3 C 0,0 UV-I 0,0 C 60 % 93 % 0 % 1023,6 hPa 0,0 l/m 6,4 km/h (2 Bft) 0,00 h 0,07 h 9,1 km/h (2 Bft)
03.03.2012 02:00 15,6 C 8,3 C 0,0 UV-I 0,0 C 60 % 93 % 0 % 1023,2 hPa 0,0 l/m 6,1 km/h (2 Bft) 0,00 h 0,00 h 8,6 km/h (2 Bft)
03.03.2012 03:00 15,6 C 8,4 C 0,0 UV-I 0,0 C 60 % 93 % 0 % 1022,6 hPa 0,0 l/m 6,3 km/h (2 Bft) 0,00 h 0,03 h 7,9 km/h (2 Bft)
03.03.2012 04:00 15,5 C 8,4 C 0,0 UV-I 0,0 C 60 % 93 % 0 % 1022,4 hPa 0,0 l/m 6,3 km/h (2 Bft) 0,00 h 0,03 h 7,7 km/h (2 Bft)
03.03.2012 05:00 15,5 C 8,5 C 0,0 UV-I 0,0 C 60 % 93 % 0 % 1022,1 hPa 0,0 l/m 7,3 km/h (2 Bft) 0,00 h 0,13 h 10,7 km/h (2 Bft)
03.03.2012 06:00 15,4 C 8,4 C 0,0 UV-I 0,0 C 59 % 93 % 0 % 1022,0 hPa 0,0 l/m 7,1 km/h (2 Bft) 0,00 h 0,03 h 9,8 km/h (2 Bft)
03.03.2012 07:00 15,2 C 8,3 C 0,0 UV-I 0,0 C 59 % 93 % 0 % 1022,4 hPa 0,0 l/m 5,6 km/h (1 Bft) 0,00 h 0,10 h 7,6 km/h (2 Bft)
03.03.2012 08:00 15,3 C 8,1 C 0,0 UV-I 0,0 C 59 % 93 % 0 % 1022,6 hPa 0,0 l/m 5,8 km/h (2 Bft) 0,00 h 0,03 h 7,1 km/h (2 Bft)
03.03.2012 09:00 15,4 C 8,2 C 0,0 UV-I 0,1 C 59 % 93 % 3 % 1023,0 hPa 0,0 l/m 4,4 km/h (1 Bft) 0,00 h 0,00 h 6,8 km/h (2 Bft)
03.03.2012 10:00 15,6 C 8,9 C 0,0 UV-I 0,7 C 59 % 92 % 19 % 1022,9 hPa 0,0 l/m 6,5 km/h (2 Bft) 0,00 h 0,00 h 9,0 km/h (2 Bft)
03.03.2012 11:00 15,8 C 9,5 C 0,0 UV-I 1,0 C 59 % 91 % 28 % 1023,2 hPa 0,0 l/m 5,6 km/h (1 Bft) 0,00 h 0,00 h 8,7 km/h (2 Bft)
03.03.2012 12:00 15,9 C 10,3 C 0,1 UV-I 1,1 C 59 % 89 % 32 % 1023,4 hPa 0,0 l/m 6,6 km/h (2 Bft) 0,00 h 0,00 h 9,2 km/h (2 Bft)
03.03.2012 13:00 16,1 C 10,9 C 0,0 UV-I 0,9 C 58 % 86 % 24 % 1023,3 hPa 0,0 l/m 4,9 km/h (1 Bft) 0,00 h 0,00 h 6,6 km/h (2 Bft)
03.03.2012 14:00 16,2 C 11,2 C 0,0 UV-I 0,4 C 59 % 85 % 11 % 1023,0 hPa 0,0 l/m 2,9 km/h (1 Bft) 0,00 h 0,00 h 4,7 km/h (1 Bft)
03.03.2012 15:00 16,2 C 11,7 C 0,0 UV-I 0,9 C 58 % 82 % 24 % 1022,8 hPa 0,0 l/m 1,8 km/h (1 Bft) 0,00 h 0,00 h 2,3 km/h (1 Bft)
03.03.2012 16:00 16,2 C 12,0 C 0,0 UV-I 0,6 C 57 % 79 % 18 % 1022,9 hPa 0,0 l/m 1,5 km/h (1 Bft) 0,00 h 0,00 h 2,5 km/h (1 Bft)
03.03.2012 17:00 16,2 C 11,9 C 0,0 UV-I 0,0 C 57 % 78 % 0 % 1023,1 hPa 0,0 l/m 1,0 km/h (0 Bft) 0,00 h 0,00 h 2,0 km/h (1 Bft)
03.03.2012 18:00 16,2 C 11,4 C 0,0 UV-I 0,0 C 57 % 78 % 0 % 1023,4 hPa 0,0 l/m 0,0 km/h (0 Bft) 0,00 h 0,00 h 0,0 km/h (0 Bft)
03.03.2012 19:00 16,2 C 11,0 C 0,0 UV-I 0,0 C 58 % 79 % 0 % 1023,6 hPa 0,0 l/m 0,1 km/h (0 Bft) 0,00 h 0,00 h 0,2 km/h (0 Bft)
03.03.2012 20:00 16,1 C 10,7 C 0,0 UV-I 0,0 C 58 % 81 % 0 % 1023,7 hPa 0,0 l/m 0,3 km/h (0 Bft) 0,00 h 0,00 h 0,9 km/h (0 Bft)
03.03.2012 21:00 16,1 C 10,5 C 0,0 UV-I 0,0 C 58 % 83 % 0 % 1023,9 hPa 0,0 l/m 2,9 km/h (1 Bft) 0,00 h 0,00 h 4,5 km/h (1 Bft)
03.03.2012 22:00 16,0 C 10,0 C 0,0 UV-I 0,0 C 58 % 85 % 0 % 1024,2 hPa 0,0 l/m 1,7 km/h (1 Bft) 0,00 h 0,10 h 2,4 km/h (1 Bft)
03.03.2012 23:00 15,9 C 9,8 C 0,0 UV-I 0,0 C 59 % 86 % 0 % 1024,2 hPa 0,0 l/m 0,0 km/h (0 Bft) 0,00 h 0,03 h 0,2 km/h (0 Bft)
04.03.2012 00:00 15,9 C 9,6 C 0,0 UV-I 0,0 C 59 % 87 % 0 % 1024,4 hPa 0,0 l/m 0,1 km/h (0 Bft) 0,00 h 0,13 h 0,1 km/h (0 Bft)
04.03.2012 01:00 15,9 C 9,7 C 0,0 UV-I 0,0 C 59 % 89 % 0 % 1024,4 hPa 0,0 l/m 0,1 km/h (0 Bft) 0,00 h 0,00 h 0,7 km/h (0 Bft)
04.03.2012 02:00 15,9 C 9,6 C 0,0 UV-I 0,0 C 59 % 89 % 0 % 1024,2 hPa 0,0 l/m 0,3 km/h (0 Bft) 0,00 h 0,03 h 0,3 km/h (0 Bft)
04.03.2012 03:00 16,0 C 9,5 C 0,0 UV-I 0,0 C 59 % 90 % 0 % 1023,9 hPa 0,0 l/m 0,2 km/h (0 Bft) 0,00 h 0,07 h 0,7 km/h (0 Bft)
04.03.2012 04:00 16,0 C 9,1 C 0,0 UV-I 0,0 C 59 % 91 % 0 % 1023,5 hPa 0,0 l/m 0,4 km/h (0 Bft) 0,00 h 0,10 h 1,2 km/h (1 Bft)
04.03.2012 05:00 15,9 C 8,5 C 0,0 UV-I 0,0 C 60 % 92 % 0 % 1023,4 hPa 0,0 l/m 0,2 km/h (0 Bft) 0,00 h 0,00 h 0,0 km/h (0 Bft)
04.03.2012 06:00 15,8 C 7,1 C 0,0 UV-I 0,0 C 59 % 92 % 0 % 1023,0 hPa 0,0 l/m 0,0 km/h (0 Bft) 0,00 h 0,07 h 0,0 km/h (0 Bft)
04.03.2012 07:00 15,6 C 5,9 C 0,0 UV-I 0,0 C 59 % 93 % 0 % 1022,7 hPa 0,0 l/m 0,0 km/h (0 Bft) 0,00 h 0,03 h 0,0 km/h (0 Bft)
04.03.2012 08:00 15,6 C 6,2 C 0,0 UV-I 0,2 C 59 % 95 % 5 % 1022,5 hPa 0,0 l/m 0,3 km/h (0 Bft) 0,00 h 0,00 h 0,8 km/h (0 Bft)
04.03.2012 09:00 15,7 C 7,7 C 0,0 UV-I 1,0 C 59 % 96 % 28 % 1022,3 hPa 0,0 l/m 1,1 km/h (1 Bft) 0,00 h 0,00 h 2,1 km/h (1 Bft)
04.03.2012 10:00 15,9 C 9,1 C 0,3 UV-I 2,1 C 59 % 96 % 54 % 1021,8 hPa 0,0 l/m 2,3 km/h (1 Bft) 0,23 h 0,00 h 4,1 km/h (1 Bft)
04.03.2012 11:00 16,3 C 11,3 C 0,8 UV-I 3,8 C 59 % 91 % 95 % 1021,6 hPa 0,0 l/m 4,7 km/h (1 Bft) 1,00 h 0,00 h 7,0 km/h (2 Bft)
04.03.2012 12:00 16,7 C 12,0 C 0,7 UV-I 2,1 C 57 % 85 % 61 % 1021,0 hPa 0,0 l/m 7,0 km/h (2 Bft) 0,13 h 0,00 h 9,4 km/h (2 Bft)
04.03.2012 13:00 16,9 C 12,2 C 0,4 UV-I 1,4 C 57 % 82 % 39 % 1020,1 hPa 0,0 l/m 8,0 km/h (2 Bft) 0,00 h 0,03 h 10,6 km/h (2 Bft)
04.03.2012 14:00 16,9 C 11,7 C 0,1 UV-I 0,2 C 57 % 85 % 6 % 1018,9 hPa 0,2 l/m 8,0 km/h (2 Bft) 0,00 h 0,97 h 10,1 km/h (2 Bft)
04.03.2012 15:00 16,6 C 10,6 C 0,0 UV-I 0,0 C 59 % 91 % 0 % 1018,2 hPa 1,1 l/m 7,0 km/h (2 Bft) 0,00 h 1,00 h 9,5 km/h (2 Bft)
04.03.2012 16:00 16,4 C 10,0 C 0,0 UV-I 0,0 C 60 % 93 % 0 % 1017,5 hPa 0,7 l/m 7,7 km/h (2 Bft) 0,00 h 0,87 h 10,5 km/h (2 Bft)
04.03.2012 17:00 16,3 C 9,8 C 0,0 UV-I 0,0 C 61 % 94 % 0 % 1016,6 hPa 0,6 l/m 6,9 km/h (2 Bft) 0,00 h 0,67 h 9,1 km/h (2 Bft)
04.03.2012 18:00 16,2 C 9,3 C 0,0 UV-I 0,0 C 61 % 95 % 0 % 1016,1 hPa 0,5 l/m 6,8 km/h (2 Bft) 0,00 h 0,97 h 9,0 km/h (2 Bft)
04.03.2012 19:00 16,1 C 9,1 C 0,0 UV-I 0,0 C 61 % 96 % 0 % 1015,6 hPa 0,6 l/m 8,3 km/h (2 Bft) 0,00 h 0,60 h 10,9 km/h (2 Bft)
04.03.2012 20:00 15,9 C 8,7 C 0,0 UV-I 0,0 C 61 % 96 % 0 % 1014,9 hPa 0,1 l/m 7,8 km/h (2 Bft) 0,00 h 0,60 h 10,2 km/h (2 Bft)
04.03.2012 21:00 16,0 C 8,5 C 0,0 UV-I 0,0 C 61 % 96 % 0 % 1014,3 hPa 0,9 l/m 7,1 km/h (2 Bft) 0,00 h 0,73 h 9,4 km/h (2 Bft)
04.03.2012 22:00 16,0 C 8,3 C 0,0 UV-I 0,0 C 61 % 96 % 0 % 1013,6 hPa 0,2 l/m 5,8 km/h (2 Bft) 0,00 h 0,47 h 8,7 km/h (2 Bft)
04.03.2012 23:00 16,0 C 8,1 C 0,0 UV-I 0,0 C 61 % 96 % 0 % 1012,9 hPa 0,9 l/m 6,8 km/h (2 Bft) 0,00 h 1,00 h 8,9 km/h (2 Bft)
Min-Datum _ 27.02.12 27.02.12 27.02.12 27.02.12 27.02.12 27.02.12 27.02.12 04.03.12 - 27.02.12 - - 27.02.12
_ Min-Zeit 02:08 01:36 00:00 00:00 14:06 15:08 00:00 23:46 - 00:00 - - 00:00
Minimum _ 14,1 C 3,2 C 0,0 UV-I 0,0 C 47 % 74 % 0 % 1012,5 hPa - 0,0 km/h (0 Bft) - - 0,0 km/h (0 Bft)
Max-Datum _ 04.03.12 29.02.12 27.02.12 27.02.12 29.02.12 29.02.12 27.02.12 02.03.12 04.03.12 03.03.12 27.02.12 27.02.12 03.03.12
_ Max-Zeit 13:12 15:06 13:00 13:02 08:06 08:10 12:10 02:06 15:02 00:32 11:08 00:26 00:28
Maximum _ 16,9 C 12,5 C 3,0 UV-I 6,3 C 69 % 99 % 100 % 1029,1 hPa 1,1 l/m 12,8 km/h
O-SO (3 Bft)
0,03 h 0,03 h 35,7 km/h
O-SO (5 Bft)
Durchschnitt _ 15,5 C 9,2 C 0,0 UV-I 0,4 C 61 % 93 % 10 % 1024,6 hPa #6,3 l/m 3,3 km/h (1 Bft) #3:14 h #16:12 h 4,8 km/h (1 Bft)
© 2012 W. Hausmann